sensor_id;sensor_type;location;lat;lon;timestamp;P1;durP1;ratioP1;P2;durP2;ratioP2
16854;SDS011;8543;54.522;18.550;2022-12-04T00:01:56;49.80;;;23.40;;
16854;SDS011;8543;54.522;18.550;2022-12-04T00:04:22;50.60;;;23.10;;
16854;SDS011;8543;54.522;18.550;2022-12-04T00:06:47;50.00;;;21.60;;
16854;SDS011;8543;54.522;18.550;2022-12-04T00:09:12;41.70;;;19.90;;
16854;SDS011;8543;54.522;18.550;2022-12-04T00:11:38;55.10;;;22.80;;
16854;SDS011;8543;54.522;18.550;2022-12-04T00:14:03;60.80;;;25.30;;
16854;SDS011;8543;54.522;18.550;2022-12-04T00:16:29;59.60;;;25.80;;
16854;SDS011;8543;54.522;18.550;2022-12-04T00:18:55;59.70;;;26.80;;
16854;SDS011;8543;54.522;18.550;2022-12-04T00:21:22;55.80;;;23.80;;
16854;SDS011;8543;54.522;18.550;2022-12-04T00:23:48;55.00;;;22.20;;
16854;SDS011;8543;54.522;18.550;2022-12-04T00:26:15;50.60;;;23.80;;
16854;SDS011;8543;54.522;18.550;2022-12-04T00:28:42;55.50;;;23.30;;
16854;SDS011;8543;54.522;18.550;2022-12-04T00:31:09;46.30;;;22.70;;
16854;SDS011;8543;54.522;18.550;2022-12-04T00:33:35;48.30;;;22.40;;
16854;SDS011;8543;54.522;18.550;2022-12-04T00:36:03;49.40;;;22.80;;
16854;SDS011;8543;54.522;18.550;2022-12-04T00:38:30;54.80;;;23.80;;
16854;SDS011;8543;54.522;18.550;2022-12-04T00:40:55;49.50;;;21.40;;
16854;SDS011;8543;54.522;18.550;2022-12-04T00:43:21;45.70;;;19.70;;
16854;SDS011;8543;54.522;18.550;2022-12-04T00:45:47;48.80;;;22.90;;
16854;SDS011;8543;54.522;18.550;2022-12-04T00:48:13;54.00;;;24.00;;
16854;SDS011;8543;54.522;18.550;2022-12-04T00:50:39;51.40;;;22.70;;
16854;SDS011;8543;54.522;18.550;2022-12-04T00:53:04;44.90;;;20.70;;
16854;SDS011;8543;54.522;18.550;2022-12-04T00:55:30;59.90;;;25.30;;
16854;SDS011;8543;54.522;18.550;2022-12-04T00:57:55;62.90;;;27.10;;
16854;SDS011;8543;54.522;18.550;2022-12-04T01:00:21;68.60;;;29.10;;
16854;SDS011;8543;54.522;18.550;2022-12-04T01:02:46;54.90;;;25.60;;
16854;SDS011;8543;54.522;18.550;2022-12-04T01:05:11;57.00;;;24.00;;
16854;SDS011;8543;54.522;18.550;2022-12-04T01:07:37;56.30;;;27.00;;
16854;SDS011;8543;54.522;18.550;2022-12-04T01:10:04;51.00;;;22.80;;
16854;SDS011;8543;54.522;18.550;2022-12-04T01:12:30;54.30;;;23.20;;
16854;SDS011;8543;54.522;18.550;2022-12-04T01:14:56;52.90;;;23.90;;
16854;SDS011;8543;54.522;18.550;2022-12-04T01:17:21;50.70;;;24.00;;
16854;SDS011;8543;54.522;18.550;2022-12-04T01:19:47;48.10;;;22.70;;
16854;SDS011;8543;54.522;18.550;2022-12-04T01:22:12;48.70;;;23.70;;
16854;SDS011;8543;54.522;18.550;2022-12-04T01:24:38;52.80;;;22.50;;
16854;SDS011;8543;54.522;18.550;2022-12-04T01:27:03;56.20;;;25.70;;
16854;SDS011;8543;54.522;18.550;2022-12-04T01:29:28;48.00;;;21.30;;
16854;SDS011;8543;54.522;18.550;2022-12-04T01:31:54;48.70;;;22.40;;
16854;SDS011;8543;54.522;18.550;2022-12-04T01:34:19;42.10;;;21.90;;
16854;SDS011;8543;54.522;18.550;2022-12-04T01:36:44;47.20;;;24.30;;
16854;SDS011;8543;54.522;18.550;2022-12-04T01:39:10;59.60;;;25.80;;
16854;SDS011;8543;54.522;18.550;2022-12-04T01:41:36;74.30;;;29.80;;
16854;SDS011;8543;54.522;18.550;2022-12-04T01:44:15;61.10;;;27.50;;
16854;SDS011;8543;54.522;18.550;2022-12-04T01:46:42;53.90;;;25.00;;
16854;SDS011;8543;54.522;18.550;2022-12-04T01:49:12;57.40;;;25.20;;
16854;SDS011;8543;54.522;18.550;2022-12-04T01:51:41;54.20;;;23.20;;
16854;SDS011;8543;54.522;18.550;2022-12-04T01:54:10;48.80;;;23.20;;
16854;SDS011;8543;54.522;18.550;2022-12-04T01:56:48;49.40;;;22.60;;
16854;SDS011;8543;54.522;18.550;2022-12-04T01:59:18;54.10;;;23.60;;
16854;SDS011;8543;54.522;18.550;2022-12-04T02:01:55;45.10;;;21.50;;
16854;SDS011;8543;54.522;18.550;2022-12-04T02:04:23;52.30;;;23.60;;
16854;SDS011;8543;54.522;18.550;2022-12-04T02:06:49;49.80;;;22.60;;
16854;SDS011;8543;54.522;18.550;2022-12-04T02:09:14;44.40;;;22.60;;
16854;SDS011;8543;54.522;18.550;2022-12-04T02:11:51;51.80;;;21.40;;
16854;SDS011;8543;54.522;18.550;2022-12-04T02:19:50;53.10;;;22.20;;
16854;SDS011;8543;54.522;18.550;2022-12-04T02:30:06;60.40;;;24.80;;
16854;SDS011;8543;54.522;18.550;2022-12-04T02:32:41;50.70;;;24.10;;
16854;SDS011;8543;54.522;18.550;2022-12-04T02:35:20;46.20;;;21.90;;
16854;SDS011;8543;54.522;18.550;2022-12-04T02:37:51;38.40;;;19.20;;
16854;SDS011;8543;54.522;18.550;2022-12-04T02:40:28;44.50;;;22.20;;
16854;SDS011;8543;54.522;18.550;2022-12-04T02:43:06;42.70;;;22.70;;
16854;SDS011;8543;54.522;18.550;2022-12-04T02:48:10;42.60;;;20.20;;
16854;SDS011;8543;54.522;18.550;2022-12-04T02:50:39;45.20;;;19.80;;
16854;SDS011;8543;54.522;18.550;2022-12-04T02:53:25;38.80;;;21.20;;
16854;SDS011;8543;54.522;18.550;2022-12-04T02:55:58;43.20;;;20.40;;
16854;SDS011;8543;54.522;18.550;2022-12-04T02:58:31;46.50;;;21.20;;
16854;SDS011;8543;54.522;18.550;2022-12-04T03:01:02;41.80;;;20.20;;
16854;SDS011;8543;54.522;18.550;2022-12-04T03:03:44;56.80;;;26.00;;
16854;SDS011;8543;54.522;18.550;2022-12-04T03:06:13;57.10;;;25.80;;
16854;SDS011;8543;54.522;18.550;2022-12-04T03:08:41;58.80;;;24.00;;
16854;SDS011;8543;54.522;18.550;2022-12-04T03:11:10;45.70;;;20.90;;
16854;SDS011;8543;54.522;18.550;2022-12-04T03:13:37;48.20;;;21.40;;
16854;SDS011;8543;54.522;18.550;2022-12-04T03:16:34;44.50;;;21.90;;
16854;SDS011;8543;54.522;18.550;2022-12-04T03:19:11;46.40;;;22.30;;
16854;SDS011;8543;54.522;18.550;2022-12-04T03:21:41;45.30;;;20.90;;
16854;SDS011;8543;54.522;18.550;2022-12-04T03:24:19;41.00;;;20.90;;
16854;SDS011;8543;54.522;18.550;2022-12-04T03:27:00;41.30;;;19.20;;
16854;SDS011;8543;54.522;18.550;2022-12-04T03:29:40;37.90;;;18.70;;
16854;SDS011;8543;54.522;18.550;2022-12-04T03:32:24;44.40;;;20.80;;
16854;SDS011;8543;54.522;18.550;2022-12-04T03:37:40;52.70;;;22.40;;
16854;SDS011;8543;54.522;18.550;2022-12-04T03:40:19;61.90;;;25.80;;
16854;SDS011;8543;54.522;18.550;2022-12-04T03:42:48;57.90;;;25.20;;
16854;SDS011;8543;54.522;18.550;2022-12-04T03:45:25;49.10;;;23.30;;
16854;SDS011;8543;54.522;18.550;2022-12-04T03:48:19;60.60;;;24.90;;
16854;SDS011;8543;54.522;18.550;2022-12-04T03:50:52;47.10;;;23.20;;
16854;SDS011;8543;54.522;18.550;2022-12-04T03:53:34;43.80;;;21.10;;
16854;SDS011;8543;54.522;18.550;2022-12-04T03:56:11;45.00;;;21.80;;
16854;SDS011;8543;54.522;18.550;2022-12-04T03:58:41;44.90;;;21.80;;
16854;SDS011;8543;54.522;18.550;2022-12-04T04:01:10;44.50;;;20.20;;
16854;SDS011;8543;54.522;18.550;2022-12-04T04:03:38;39.50;;;19.40;;
16854;SDS011;8543;54.522;18.550;2022-12-04T04:06:11;45.20;;;20.60;;
16854;SDS011;8543;54.522;18.550;2022-12-04T04:08:40;40.30;;;21.60;;
16854;SDS011;8543;54.522;18.550;2022-12-04T04:11:09;43.90;;;19.50;;
16854;SDS011;8543;54.522;18.550;2022-12-04T04:13:53;41.60;;;19.00;;
16854;SDS011;8543;54.522;18.550;2022-12-04T04:16:51;41.90;;;17.70;;
16854;SDS011;8543;54.522;18.550;2022-12-04T04:19:38;45.40;;;18.00;;
16854;SDS011;8543;54.522;18.550;2022-12-04T04:22:25;57.00;;;23.50;;
16854;SDS011;8543;54.522;18.550;2022-12-04T04:25:13;53.20;;;22.90;;
16854;SDS011;8543;54.522;18.550;2022-12-04T04:27:41;50.80;;;22.80;;
16854;SDS011;8543;54.522;18.550;2022-12-04T04:30:07;54.30;;;22.50;;
16854;SDS011;8543;54.522;18.550;2022-12-04T04:35:23;50.90;;;23.00;;
16854;SDS011;8543;54.522;18.550;2022-12-04T04:37:55;45.60;;;21.70;;
16854;SDS011;8543;54.522;18.550;2022-12-04T04:40:23;40.60;;;19.50;;
16854;SDS011;8543;54.522;18.550;2022-12-04T04:42:59;41.50;;;20.20;;
16854;SDS011;8543;54.522;18.550;2022-12-04T04:48:13;36.00;;;18.20;;
16854;SDS011;8543;54.522;18.550;2022-12-04T04:50:41;42.20;;;18.90;;
16854;SDS011;8543;54.522;18.550;2022-12-04T04:53:08;48.50;;;19.70;;
16854;SDS011;8543;54.522;18.550;2022-12-04T04:55:36;42.00;;;19.30;;
16854;SDS011;8543;54.522;18.550;2022-12-04T04:58:06;37.40;;;16.00;;
16854;SDS011;8543;54.522;18.550;2022-12-04T05:00:36;42.40;;;17.80;;
16854;SDS011;8543;54.522;18.550;2022-12-04T05:03:02;34.20;;;16.70;;
16854;SDS011;8543;54.522;18.550;2022-12-04T05:05:28;26.60;;;12.90;;
16854;SDS011;8543;54.522;18.550;2022-12-04T05:07:54;33.50;;;15.30;;
16854;SDS011;8543;54.522;18.550;2022-12-04T05:10:19;32.10;;;17.30;;
16854;SDS011;8543;54.522;18.550;2022-12-04T05:12:45;33.30;;;15.50;;
16854;SDS011;8543;54.522;18.550;2022-12-04T05:15:10;33.30;;;15.90;;
16854;SDS011;8543;54.522;18.550;2022-12-04T05:17:35;40.90;;;19.30;;
16854;SDS011;8543;54.522;18.550;2022-12-04T05:20:02;36.50;;;19.50;;
16854;SDS011;8543;54.522;18.550;2022-12-04T05:22:29;34.80;;;16.00;;
16854;SDS011;8543;54.522;18.550;2022-12-04T05:24:57;34.40;;;17.00;;
16854;SDS011;8543;54.522;18.550;2022-12-04T05:27:22;35.70;;;18.90;;
16854;SDS011;8543;54.522;18.550;2022-12-04T05:29:53;42.50;;;18.80;;
16854;SDS011;8543;54.522;18.550;2022-12-04T05:32:19;40.00;;;19.20;;
16854;SDS011;8543;54.522;18.550;2022-12-04T05:34:49;37.30;;;19.20;;
16854;SDS011;8543;54.522;18.550;2022-12-04T05:37:15;33.10;;;17.60;;
16854;SDS011;8543;54.522;18.550;2022-12-04T05:39:41;30.70;;;16.00;;
16854;SDS011;8543;54.522;18.550;2022-12-04T05:42:06;35.20;;;17.40;;
16854;SDS011;8543;54.522;18.550;2022-12-04T05:44:32;31.30;;;15.20;;
16854;SDS011;8543;54.522;18.550;2022-12-04T05:46:57;32.50;;;15.90;;
16854;SDS011;8543;54.522;18.550;2022-12-04T05:49:22;30.10;;;16.10;;
16854;SDS011;8543;54.522;18.550;2022-12-04T05:51:49;32.50;;;15.90;;
16854;SDS011;8543;54.522;18.550;2022-12-04T05:54:15;38.80;;;18.80;;
16854;SDS011;8543;54.522;18.550;2022-12-04T05:56:40;37.80;;;18.90;;
16854;SDS011;8543;54.522;18.550;2022-12-04T05:59:06;38.10;;;16.70;;
16854;SDS011;8543;54.522;18.550;2022-12-04T06:01:31;34.80;;;16.10;;
16854;SDS011;8543;54.522;18.550;2022-12-04T06:03:56;32.80;;;15.90;;
16854;SDS011;8543;54.522;18.550;2022-12-04T06:06:23;34.30;;;17.30;;
16854;SDS011;8543;54.522;18.550;2022-12-04T06:08:49;37.20;;;17.40;;
16854;SDS011;8543;54.522;18.550;2022-12-04T06:11:17;35.60;;;18.40;;
16854;SDS011;8543;54.522;18.550;2022-12-04T06:13:47;32.90;;;16.70;;
16854;SDS011;8543;54.522;18.550;2022-12-04T06:18:39;31.00;;;15.20;;
16854;SDS011;8543;54.522;18.550;2022-12-04T06:21:04;30.60;;;16.30;;
16854;SDS011;8543;54.522;18.550;2022-12-04T06:23:29;29.30;;;14.70;;
16854;SDS011;8543;54.522;18.550;2022-12-04T06:25:55;35.40;;;16.80;;
16854;SDS011;8543;54.522;18.550;2022-12-04T06:28:20;30.50;;;15.80;;
16854;SDS011;8543;54.522;18.550;2022-12-04T06:30:46;29.80;;;15.30;;
16854;SDS011;8543;54.522;18.550;2022-12-04T06:33:11;30.20;;;15.20;;
16854;SDS011;8543;54.522;18.550;2022-12-04T06:35:36;27.00;;;14.70;;
16854;SDS011;8543;54.522;18.550;2022-12-04T06:38:02;30.20;;;15.30;;
16854;SDS011;8543;54.522;18.550;2022-12-04T06:40:27;34.70;;;17.20;;
16854;SDS011;8543;54.522;18.550;2022-12-04T06:42:52;34.90;;;17.80;;
16854;SDS011;8543;54.522;18.550;2022-12-04T06:45:18;34.30;;;16.40;;
16854;SDS011;8543;54.522;18.550;2022-12-04T06:47:43;33.80;;;16.80;;
16854;SDS011;8543;54.522;18.550;2022-12-04T06:50:08;31.50;;;16.30;;
16854;SDS011;8543;54.522;18.550;2022-12-04T06:52:34;32.90;;;17.20;;
16854;SDS011;8543;54.522;18.550;2022-12-04T06:54:59;31.10;;;16.80;;
16854;SDS011;8543;54.522;18.550;2022-12-04T06:57:25;26.80;;;14.90;;
16854;SDS011;8543;54.522;18.550;2022-12-04T06:59:50;34.20;;;15.50;;
16854;SDS011;8543;54.522;18.550;2022-12-04T07:02:15;33.20;;;15.80;;
16854;SDS011;8543;54.522;18.550;2022-12-04T07:04:41;31.70;;;14.60;;
16854;SDS011;8543;54.522;18.550;2022-12-04T07:07:07;30.30;;;15.10;;
16854;SDS011;8543;54.522;18.550;2022-12-04T07:09:34;33.30;;;16.70;;
16854;SDS011;8543;54.522;18.550;2022-12-04T07:11:59;25.80;;;11.30;;
16854;SDS011;8543;54.522;18.550;2022-12-04T07:14:25;29.60;;;15.90;;
16854;SDS011;8543;54.522;18.550;2022-12-04T07:16:50;29.20;;;14.20;;
16854;SDS011;8543;54.522;18.550;2022-12-04T07:19:15;25.20;;;13.10;;
16854;SDS011;8543;54.522;18.550;2022-12-04T07:21:41;27.10;;;15.70;;
16854;SDS011;8543;54.522;18.550;2022-12-04T07:24:08;29.80;;;13.90;;
16854;SDS011;8543;54.522;18.550;2022-12-04T07:26:38;28.70;;;16.20;;
16854;SDS011;8543;54.522;18.550;2022-12-04T07:29:03;32.60;;;15.80;;
16854;SDS011;8543;54.522;18.550;2022-12-04T07:31:28;33.40;;;16.80;;
16854;SDS011;8543;54.522;18.550;2022-12-04T07:33:54;25.60;;;13.90;;
16854;SDS011;8543;54.522;18.550;2022-12-04T07:36:21;25.20;;;12.40;;
16854;SDS011;8543;54.522;18.550;2022-12-04T07:38:47;27.40;;;14.80;;
16854;SDS011;8543;54.522;18.550;2022-12-04T07:41:13;32.20;;;15.70;;
16854;SDS011;8543;54.522;18.550;2022-12-04T07:43:39;31.90;;;16.50;;
16854;SDS011;8543;54.522;18.550;2022-12-04T07:46:11;28.90;;;14.90;;
16854;SDS011;8543;54.522;18.550;2022-12-04T07:48:38;30.00;;;16.10;;
16854;SDS011;8543;54.522;18.550;2022-12-04T07:51:12;27.30;;;13.60;;
16854;SDS011;8543;54.522;18.550;2022-12-04T07:53:38;24.80;;;13.50;;
16854;SDS011;8543;54.522;18.550;2022-12-04T07:56:04;34.60;;;16.00;;
16854;SDS011;8543;54.522;18.550;2022-12-04T07:58:30;28.20;;;13.50;;
16854;SDS011;8543;54.522;18.550;2022-12-04T08:03:31;29.80;;;15.00;;
16854;SDS011;8543;54.522;18.550;2022-12-04T08:06:00;26.70;;;13.50;;
16854;SDS011;8543;54.522;18.550;2022-12-04T08:08:26;25.10;;;12.70;;
16854;SDS011;8543;54.522;18.550;2022-12-04T08:10:52;31.20;;;14.70;;
16854;SDS011;8543;54.522;18.550;2022-12-04T08:13:17;36.00;;;17.40;;
16854;SDS011;8543;54.522;18.550;2022-12-04T08:15:43;27.20;;;14.10;;
16854;SDS011;8543;54.522;18.550;2022-12-04T08:18:08;37.80;;;16.70;;
16854;SDS011;8543;54.522;18.550;2022-12-04T08:20:33;35.70;;;16.00;;
16854;SDS011;8543;54.522;18.550;2022-12-04T08:22:59;30.20;;;14.20;;
16854;SDS011;8543;54.522;18.550;2022-12-04T08:25:24;32.40;;;14.90;;
16854;SDS011;8543;54.522;18.550;2022-12-04T08:27:49;29.60;;;14.00;;
16854;SDS011;8543;54.522;18.550;2022-12-04T08:30:15;31.60;;;14.70;;
16854;SDS011;8543;54.522;18.550;2022-12-04T08:32:40;32.00;;;15.80;;
16854;SDS011;8543;54.522;18.550;2022-12-04T08:35:06;34.10;;;16.70;;
16854;SDS011;8543;54.522;18.550;2022-12-04T08:37:31;40.00;;;19.30;;
16854;SDS011;8543;54.522;18.550;2022-12-04T08:39:57;37.40;;;18.00;;
16854;SDS011;8543;54.522;18.550;2022-12-04T08:42:23;40.40;;;18.10;;
16854;SDS011;8543;54.522;18.550;2022-12-04T08:44:48;31.60;;;15.80;;
16854;SDS011;8543;54.522;18.550;2022-12-04T08:47:13;32.00;;;14.20;;
16854;SDS011;8543;54.522;18.550;2022-12-04T08:49:39;34.90;;;17.50;;
16854;SDS011;8543;54.522;18.550;2022-12-04T08:52:04;33.80;;;16.50;;
16854;SDS011;8543;54.522;18.550;2022-12-04T08:54:29;37.60;;;17.10;;
16854;SDS011;8543;54.522;18.550;2022-12-04T08:56:55;34.90;;;15.90;;
16854;SDS011;8543;54.522;18.550;2022-12-04T08:59:20;41.70;;;19.70;;
16854;SDS011;8543;54.522;18.550;2022-12-04T09:01:48;35.20;;;16.40;;
16854;SDS011;8543;54.522;18.550;2022-12-04T09:04:15;42.70;;;19.20;;
16854;SDS011;8543;54.522;18.550;2022-12-04T09:06:40;37.80;;;16.50;;
16854;SDS011;8543;54.522;18.550;2022-12-04T09:09:05;36.80;;;18.60;;
16854;SDS011;8543;54.522;18.550;2022-12-04T09:11:31;36.60;;;16.40;;
16854;SDS011;8543;54.522;18.550;2022-12-04T09:13:56;35.50;;;17.20;;
16854;SDS011;8543;54.522;18.550;2022-12-04T09:16:23;40.60;;;17.80;;
16854;SDS011;8543;54.522;18.550;2022-12-04T09:18:49;39.40;;;18.40;;
16854;SDS011;8543;54.522;18.550;2022-12-04T09:21:16;40.60;;;17.80;;
16854;SDS011;8543;54.522;18.550;2022-12-04T09:23:43;38.90;;;16.80;;
16854;SDS011;8543;54.522;18.550;2022-12-04T09:28:44;28.90;;;14.90;;
16854;SDS011;8543;54.522;18.550;2022-12-04T09:31:10;34.00;;;16.20;;
16854;SDS011;8543;54.522;18.550;2022-12-04T09:33:35;35.30;;;17.60;;
16854;SDS011;8543;54.522;18.550;2022-12-04T09:36:01;35.00;;;14.40;;
16854;SDS011;8543;54.522;18.550;2022-12-04T09:38:27;32.40;;;15.20;;
16854;SDS011;8543;54.522;18.550;2022-12-04T09:43:33;26.10;;;11.80;;
16854;SDS011;8543;54.522;18.550;2022-12-04T09:46:08;31.00;;;13.90;;
16854;SDS011;8543;54.522;18.550;2022-12-04T09:48:35;35.30;;;16.40;;
16854;SDS011;8543;54.522;18.550;2022-12-04T09:51:03;35.20;;;16.80;;
16854;SDS011;8543;54.522;18.550;2022-12-04T09:53:40;29.40;;;13.20;;
16854;SDS011;8543;54.522;18.550;2022-12-04T09:59:13;28.80;;;13.90;;
16854;SDS011;8543;54.522;18.550;2022-12-04T10:04:14;30.50;;;14.40;;
16854;SDS011;8543;54.522;18.550;2022-12-04T10:09:18;31.20;;;14.90;;
16854;SDS011;8543;54.522;18.550;2022-12-04T10:12:11;23.80;;;10.90;;
16854;SDS011;8543;54.522;18.550;2022-12-04T10:23:24;32.70;;;12.80;;
16854;SDS011;8543;54.522;18.550;2022-12-04T10:25:56;27.90;;;13.00;;
16854;SDS011;8543;54.522;18.550;2022-12-04T10:28:36;29.60;;;14.40;;
16854;SDS011;8543;54.522;18.550;2022-12-04T10:31:05;30.40;;;14.30;;
16854;SDS011;8543;54.522;18.550;2022-12-04T10:33:40;30.70;;;13.10;;
16854;SDS011;8543;54.522;18.550;2022-12-04T10:36:20;25.20;;;11.60;;
16854;SDS011;8543;54.522;18.550;2022-12-04T10:38:48;28.30;;;13.70;;
16854;SDS011;8543;54.522;18.550;2022-12-04T10:41:23;31.30;;;14.50;;
16854;SDS011;8543;54.522;18.550;2022-12-04T10:44:03;30.10;;;14.50;;
16854;SDS011;8543;54.522;18.550;2022-12-04T10:46:29;27.10;;;11.90;;
16854;SDS011;8543;54.522;18.550;2022-12-04T10:49:04;19.80;;;9.60;;
16854;SDS011;8543;54.522;18.550;2022-12-04T10:51:42;29.10;;;13.90;;
16854;SDS011;8543;54.522;18.550;2022-12-04T10:54:21;29.10;;;12.90;;
16854;SDS011;8543;54.522;18.550;2022-12-04T10:56:56;29.60;;;13.50;;
16854;SDS011;8543;54.522;18.550;2022-12-04T10:59:23;30.50;;;13.20;;
16854;SDS011;8543;54.522;18.550;2022-12-04T11:01:49;31.90;;;14.60;;
16854;SDS011;8543;54.522;18.550;2022-12-04T11:04:21;33.70;;;13.60;;
16854;SDS011;8543;54.522;18.550;2022-12-04T11:06:49;24.90;;;12.30;;
16854;SDS011;8543;54.522;18.550;2022-12-04T11:09:19;28.50;;;11.90;;
16854;SDS011;8543;54.522;18.550;2022-12-04T11:11:49;27.20;;;12.20;;
16854;SDS011;8543;54.522;18.550;2022-12-04T11:14:16;27.90;;;11.70;;
16854;SDS011;8543;54.522;18.550;2022-12-04T11:16:46;35.40;;;15.20;;
16854;SDS011;8543;54.522;18.550;2022-12-04T11:19:21;36.50;;;15.20;;
16854;SDS011;8543;54.522;18.550;2022-12-04T11:21:46;23.70;;;10.10;;
16854;SDS011;8543;54.522;18.550;2022-12-04T11:24:16;24.80;;;12.00;;
16854;SDS011;8543;54.522;18.550;2022-12-04T11:26:46;21.60;;;12.10;;
16854;SDS011;8543;54.522;18.550;2022-12-04T11:29:12;20.90;;;10.20;;
16854;SDS011;8543;54.522;18.550;2022-12-04T11:31:39;26.60;;;11.40;;
16854;SDS011;8543;54.522;18.550;2022-12-04T11:34:05;32.60;;;14.40;;
16854;SDS011;8543;54.522;18.550;2022-12-04T11:36:34;30.70;;;13.30;;
16854;SDS011;8543;54.522;18.550;2022-12-04T11:41:42;27.70;;;13.10;;
16854;SDS011;8543;54.522;18.550;2022-12-04T11:44:23;27.70;;;13.30;;
16854;SDS011;8543;54.522;18.550;2022-12-04T11:46:54;24.00;;;10.60;;
16854;SDS011;8543;54.522;18.550;2022-12-04T11:49:22;32.90;;;14.90;;
16854;SDS011;8543;54.522;18.550;2022-12-04T11:54:40;30.40;;;13.40;;
16854;SDS011;8543;54.522;18.550;2022-12-04T12:00:21;23.00;;;10.30;;
16854;SDS011;8543;54.522;18.550;2022-12-04T12:10:18;27.50;;;13.20;;
16854;SDS011;8543;54.522;18.550;2022-12-04T12:12:52;23.60;;;10.00;;
16854;SDS011;8543;54.522;18.550;2022-12-04T12:15:44;27.50;;;11.50;;
16854;SDS011;8543;54.522;18.550;2022-12-04T12:21:57;28.10;;;13.90;;
16854;SDS011;8543;54.522;18.550;2022-12-04T12:26:53;33.90;;;14.90;;
16854;SDS011;8543;54.522;18.550;2022-12-04T12:34:56;32.00;;;14.20;;
16854;SDS011;8543;54.522;18.550;2022-12-04T12:37:24;28.90;;;11.80;;
16854;SDS011;8543;54.522;18.550;2022-12-04T12:39:57;36.10;;;16.10;;
16854;SDS011;8543;54.522;18.550;2022-12-04T12:42:27;30.40;;;12.20;;
16854;SDS011;8543;54.522;18.550;2022-12-04T12:45:18;32.20;;;14.70;;
16854;SDS011;8543;54.522;18.550;2022-12-04T12:48:00;28.20;;;12.30;;
16854;SDS011;8543;54.522;18.550;2022-12-04T12:50:50;30.60;;;14.20;;
16854;SDS011;8543;54.522;18.550;2022-12-04T12:53:19;32.80;;;15.80;;
16854;SDS011;8543;54.522;18.550;2022-12-04T12:55:49;36.10;;;15.30;;
16854;SDS011;8543;54.522;18.550;2022-12-04T12:58:25;25.00;;;10.90;;
16854;SDS011;8543;54.522;18.550;2022-12-04T13:06:20;29.50;;;11.70;;
16854;SDS011;8543;54.522;18.550;2022-12-04T13:08:55;32.10;;;14.90;;
16854;SDS011;8543;54.522;18.550;2022-12-04T13:11:28;24.50;;;11.00;;
16854;SDS011;8543;54.522;18.550;2022-12-04T13:13:55;26.00;;;11.80;;
16854;SDS011;8543;54.522;18.550;2022-12-04T13:16:26;28.50;;;13.10;;
16854;SDS011;8543;54.522;18.550;2022-12-04T13:21:39;33.30;;;12.60;;
16854;SDS011;8543;54.522;18.550;2022-12-04T13:24:19;32.10;;;12.90;;
16854;SDS011;8543;54.522;18.550;2022-12-04T13:29:53;26.20;;;11.90;;
16854;SDS011;8543;54.522;18.550;2022-12-04T13:35:17;27.00;;;13.60;;
16854;SDS011;8543;54.522;18.550;2022-12-04T13:37:51;30.40;;;14.60;;
16854;SDS011;8543;54.522;18.550;2022-12-04T13:40:40;29.40;;;13.40;;
16854;SDS011;8543;54.522;18.550;2022-12-04T13:45:35;30.30;;;13.40;;
16854;SDS011;8543;54.522;18.550;2022-12-04T13:48:03;27.10;;;12.60;;
16854;SDS011;8543;54.522;18.550;2022-12-04T13:53:00;32.80;;;14.40;;
16854;SDS011;8543;54.522;18.550;2022-12-04T14:00:36;24.70;;;10.90;;
16854;SDS011;8543;54.522;18.550;2022-12-04T14:03:04;35.40;;;15.30;;
16854;SDS011;8543;54.522;18.550;2022-12-04T14:05:40;34.50;;;14.70;;
16854;SDS011;8543;54.522;18.550;2022-12-04T14:08:19;29.30;;;13.60;;
16854;SDS011;8543;54.522;18.550;2022-12-04T14:10:57;29.40;;;12.90;;
16854;SDS011;8543;54.522;18.550;2022-12-04T14:16:18;30.90;;;15.10;;
16854;SDS011;8543;54.522;18.550;2022-12-04T14:18:48;29.90;;;14.60;;
16854;SDS011;8543;54.522;18.550;2022-12-04T14:21:16;25.00;;;13.20;;
16854;SDS011;8543;54.522;18.550;2022-12-04T14:23:42;32.40;;;14.10;;
16854;SDS011;8543;54.522;18.550;2022-12-04T14:26:24;31.50;;;14.50;;
16854;SDS011;8543;54.522;18.550;2022-12-04T14:28:52;31.90;;;14.30;;
16854;SDS011;8543;54.522;18.550;2022-12-04T14:31:33;27.30;;;12.50;;
16854;SDS011;8543;54.522;18.550;2022-12-04T14:34:43;29.00;;;12.80;;
16854;SDS011;8543;54.522;18.550;2022-12-04T14:36:58;32.30;;;14.80;;
16854;SDS011;8543;54.522;18.550;2022-12-04T14:39:26;27.70;;;14.30;;
16854;SDS011;8543;54.522;18.550;2022-12-04T14:42:31;29.20;;;13.80;;
16854;SDS011;8543;54.522;18.550;2022-12-04T14:59:47;22.10;;;10.60;;
16854;SDS011;8543;54.522;18.550;2022-12-04T15:02:31;18.80;;;11.20;;
16854;SDS011;8543;54.522;18.550;2022-12-04T15:04:59;28.90;;;14.10;;
16854;SDS011;8543;54.522;18.550;2022-12-04T15:07:27;24.10;;;11.90;;
16854;SDS011;8543;54.522;18.550;2022-12-04T15:09:54;23.40;;;11.90;;
16854;SDS011;8543;54.522;18.550;2022-12-04T15:12:44;25.20;;;13.50;;
16854;SDS011;8543;54.522;18.550;2022-12-04T15:15:17;24.50;;;12.10;;
16854;SDS011;8543;54.522;18.550;2022-12-04T15:21:13;26.60;;;14.10;;
16854;SDS011;8543;54.522;18.550;2022-12-04T15:23:13;30.30;;;13.00;;
16854;SDS011;8543;54.522;18.550;2022-12-04T15:25:51;26.90;;;13.80;;
16854;SDS011;8543;54.522;18.550;2022-12-04T15:28:22;32.40;;;14.90;;
16854;SDS011;8543;54.522;18.550;2022-12-04T15:30:50;25.30;;;12.10;;
16854;SDS011;8543;54.522;18.550;2022-12-04T15:33:20;29.10;;;14.90;;
16854;SDS011;8543;54.522;18.550;2022-12-04T15:35:53;33.60;;;14.90;;
16854;SDS011;8543;54.522;18.550;2022-12-04T15:38:24;28.20;;;13.80;;
16854;SDS011;8543;54.522;18.550;2022-12-04T15:40:51;36.30;;;16.60;;
16854;SDS011;8543;54.522;18.550;2022-12-04T15:43:28;27.30;;;12.20;;
16854;SDS011;8543;54.522;18.550;2022-12-04T15:46:12;28.50;;;15.00;;
16854;SDS011;8543;54.522;18.550;2022-12-04T15:48:38;23.10;;;12.90;;
16854;SDS011;8543;54.522;18.550;2022-12-04T15:51:05;31.90;;;15.70;;
16854;SDS011;8543;54.522;18.550;2022-12-04T15:53:33;34.30;;;16.20;;
16854;SDS011;8543;54.522;18.550;2022-12-04T15:56:02;31.40;;;14.60;;
16854;SDS011;8543;54.522;18.550;2022-12-04T16:01:07;28.60;;;14.40;;
16854;SDS011;8543;54.522;18.550;2022-12-04T16:06:07;33.90;;;16.20;;
16854;SDS011;8543;54.522;18.550;2022-12-04T16:08:42;31.80;;;14.10;;
16854;SDS011;8543;54.522;18.550;2022-12-04T16:13:44;27.20;;;14.20;;
16854;SDS011;8543;54.522;18.550;2022-12-04T16:16:11;30.90;;;14.00;;
16854;SDS011;8543;54.522;18.550;2022-12-04T16:18:42;30.40;;;14.40;;
16854;SDS011;8543;54.522;18.550;2022-12-04T16:21:12;34.30;;;15.80;;
16854;SDS011;8543;54.522;18.550;2022-12-04T16:23:42;30.90;;;14.30;;
16854;SDS011;8543;54.522;18.550;2022-12-04T16:26:17;27.30;;;13.50;;
16854;SDS011;8543;54.522;18.550;2022-12-04T16:28:43;31.80;;;16.20;;
16854;SDS011;8543;54.522;18.550;2022-12-04T16:31:09;29.50;;;13.70;;
16854;SDS011;8543;54.522;18.550;2022-12-04T16:33:36;31.50;;;14.80;;
16854;SDS011;8543;54.522;18.550;2022-12-04T16:36:02;30.70;;;14.20;;
16854;SDS011;8543;54.522;18.550;2022-12-04T16:38:28;35.50;;;15.90;;
16854;SDS011;8543;54.522;18.550;2022-12-04T16:40:53;29.90;;;14.90;;
16854;SDS011;8543;54.522;18.550;2022-12-04T16:43:18;33.40;;;14.80;;
16854;SDS011;8543;54.522;18.550;2022-12-04T16:45:50;33.80;;;14.90;;
16854;SDS011;8543;54.522;18.550;2022-12-04T16:48:17;27.50;;;14.30;;